EZY27DJ EGNT-EGGD
Flight info
| Callsign | EZY27DJ |
|---|---|
| Flight time | 0h 46m |
| Altitude | 27000 |
| Route | GIRLI P18 GASKO P16 RIBEL/N0395F290 UP16 NOKIN N862 KARNO/N0381F280 DCT ALHUP DCT LUCSA/N0354F230 N862 WEVBE |
| Aircraft | A320/M-SDE2E3FGHIJ1RWXYZ/LB1 |
Departure
| Time | 2026-05-07 21:35 |
|---|---|
| Airport | Newcastle International Airport (EGNT) |
Arrival
| Time | 2026-05-07 22:21 |
|---|---|
| Airport | Bristol Airport (EGGD) |
| Time | Latitude | Longitude | Altitude | Speed | Heading |
|---|---|---|---|---|---|
| 2026-05-07 20:48 | 55.03664 | -1.70779 | 267 ft | 0 kts | 4° |
| 2026-05-07 21:23 | 55.03647 | -1.70781 | 267 ft | 3 kts | 4° |
| 2026-05-07 21:23 | 55.03625 | -1.70785 | 267 ft | 3 kts | 16° |
| 2026-05-07 21:23 | 55.03613 | -1.70792 | 267 ft | 0 kts | 39° |
| 2026-05-07 21:23 | 55.03605 | -1.70805 | 267 ft | 3 kts | 60° |
| 2026-05-07 21:24 | 55.03596 | -1.70837 | 267 ft | 3 kts | 38° |
| 2026-05-07 21:24 | 55.03579 | -1.70845 | 267 ft | 2 kts | 4° |
| 2026-05-07 21:24 | 55.03577 | -1.70845 | 267 ft | 0 kts | 4° |
| 2026-05-07 21:28 | 55.03581 | -1.70845 | 267 ft | 2 kts | 4° |
| 2026-05-07 21:28 | 55.03599 | -1.70819 | 267 ft | 5 kts | 78° |
| 2026-05-07 21:28 | 55.03594 | -1.70730 | 267 ft | 10 kts | 95° |
| 2026-05-07 21:28 | 55.03590 | -1.70598 | 267 ft | 11 kts | 90° |
| 2026-05-07 21:29 | 55.03601 | -1.70482 | 267 ft | 9 kts | 62° |
| 2026-05-07 21:29 | 55.03651 | -1.70439 | 267 ft | 8 kts | 2° |
| 2026-05-07 21:29 | 55.03702 | -1.70434 | 267 ft | 7 kts | 4° |
| 2026-05-07 21:29 | 55.03748 | -1.70428 | 267 ft | 6 kts | 5° |
| 2026-05-07 21:30 | 55.03781 | -1.70395 | 267 ft | 5 kts | 69° |
| 2026-05-07 21:30 | 55.03778 | -1.70302 | 266 ft | 12 kts | 94° |
| 2026-05-07 21:30 | 55.03772 | -1.70097 | 262 ft | 21 kts | 91° |
| 2026-05-07 21:30 | 55.03784 | -1.69824 | 259 ft | 24 kts | 80° |
| 2026-05-07 21:31 | 55.03830 | -1.69524 | 256 ft | 27 kts | 69° |
| 2026-05-07 21:31 | 55.03911 | -1.69214 | 253 ft | 29 kts | 65° |
| 2026-05-07 21:31 | 55.03996 | -1.68893 | 251 ft | 30 kts | 65° |
| 2026-05-07 21:31 | 55.04079 | -1.68584 | 249 ft | 28 kts | 65° |
| 2026-05-07 21:32 | 55.04159 | -1.68281 | 248 ft | 28 kts | 65° |
| 2026-05-07 21:32 | 55.04238 | -1.67983 | 247 ft | 24 kts | 65° |
| 2026-05-07 21:32 | 55.04298 | -1.67754 | 245 ft | 18 kts | 64° |
| 2026-05-07 21:32 | 55.04333 | -1.67604 | 243 ft | 11 kts | 83° |
| 2026-05-07 21:33 | 55.04328 | -1.67476 | 242 ft | 10 kts | 95° |
| 2026-05-07 21:33 | 55.04299 | -1.67380 | 241 ft | 9 kts | 151° |
| 2026-05-07 21:33 | 55.04237 | -1.67352 | 241 ft | 6 kts | 167° |
| 2026-05-07 21:33 | 55.04221 | -1.67366 | 241 ft | 1 kts | 232° |
| 2026-05-07 21:34 | 55.04217 | -1.67379 | 242 ft | 7 kts | 241° |
| 2026-05-07 21:34 | 55.04094 | -1.67841 | 247 ft | 81 kts | 245° |
| 2026-05-07 21:34 | 55.03764 | -1.69083 | 254 ft | 142 kts | 245° |
| 2026-05-07 21:34 | 55.03297 | -1.70776 | 707 ft | 155 kts | 240° |
| 2026-05-07 21:35 | 55.02844 | -1.72477 | 1481 ft | 158 kts | 239° |
| 2026-05-07 21:35 | 55.02357 | -1.74273 | 2066 ft | 168 kts | 239° |
| 2026-05-07 21:35 | 55.01581 | -1.75781 | 2583 ft | 174 kts | 202° |
| 2026-05-07 21:35 | 55.00315 | -1.76201 | 2930 ft | 202 kts | 188° |
| 2026-05-07 21:36 | 54.98834 | -1.76750 | 3293 ft | 233 kts | 198° |
| 2026-05-07 21:36 | 54.97295 | -1.77747 | 4210 ft | 239 kts | 201° |
| 2026-05-07 21:36 | 54.95727 | -1.78831 | 5146 ft | 245 kts | 202° |
| 2026-05-07 21:36 | 54.94129 | -1.79937 | 6118 ft | 249 kts | 203° |
| 2026-05-07 21:37 | 54.92510 | -1.81072 | 7026 ft | 253 kts | 203° |
| 2026-05-07 21:37 | 54.90865 | -1.82241 | 7939 ft | 257 kts | 204° |
| 2026-05-07 21:37 | 54.89191 | -1.83421 | 8859 ft | 262 kts | 203° |
| 2026-05-07 21:37 | 54.87509 | -1.84585 | 9762 ft | 266 kts | 201° |
| 2026-05-07 21:38 | 54.85701 | -1.85554 | 10372 ft | 282 kts | 198° |
| 2026-05-07 21:38 | 54.83754 | -1.86571 | 10810 ft | 300 kts | 198° |
| 2026-05-07 21:38 | 54.81740 | -1.87631 | 11563 ft | 306 kts | 198° |
| 2026-05-07 21:38 | 54.79693 | -1.88709 | 12395 ft | 309 kts | 197° |
| 2026-05-07 21:39 | 54.77621 | -1.89799 | 13232 ft | 313 kts | 197° |
| 2026-05-07 21:39 | 54.75524 | -1.90900 | 14032 ft | 316 kts | 197° |
| 2026-05-07 21:39 | 54.73404 | -1.92011 | 14735 ft | 320 kts | 197° |
| 2026-05-07 21:39 | 54.71254 | -1.93137 | 15391 ft | 325 kts | 197° |
| 2026-05-07 21:40 | 54.69077 | -1.94277 | 16076 ft | 329 kts | 197° |
| 2026-05-07 21:40 | 54.66875 | -1.95429 | 16773 ft | 332 kts | 197° |
| 2026-05-07 21:40 | 54.64653 | -1.96591 | 17476 ft | 335 kts | 197° |
| 2026-05-07 21:40 | 54.62406 | -1.97765 | 18167 ft | 339 kts | 197° |
| 2026-05-07 21:41 | 54.60140 | -1.98946 | 18786 ft | 342 kts | 197° |
| 2026-05-07 21:41 | 54.57847 | -2.00138 | 19384 ft | 346 kts | 197° |
| 2026-05-07 21:41 | 54.55531 | -2.01337 | 19970 ft | 349 kts | 197° |
| 2026-05-07 21:41 | 54.53193 | -2.02543 | 20555 ft | 352 kts | 197° |
| 2026-05-07 21:42 | 54.50837 | -2.03762 | 21128 ft | 356 kts | 197° |
| 2026-05-07 21:42 | 54.48454 | -2.04993 | 21687 ft | 359 kts | 198° |
| 2026-05-07 21:42 | 54.46047 | -2.06233 | 22220 ft | 363 kts | 198° |
| 2026-05-07 21:42 | 54.43616 | -2.07489 | 22752 ft | 367 kts | 198° |
| 2026-05-07 21:43 | 54.41158 | -2.08758 | 23280 ft | 370 kts | 198° |
| 2026-05-07 21:43 | 54.38681 | -2.10036 | 23780 ft | 373 kts | 198° |
| 2026-05-07 21:43 | 54.36181 | -2.11326 | 24238 ft | 376 kts | 198° |
| 2026-05-07 21:43 | 54.33702 | -2.12603 | 24694 ft | 378 kts | 198° |
| 2026-05-07 21:44 | 54.31173 | -2.13904 | 25147 ft | 381 kts | 198° |
| 2026-05-07 21:44 | 54.28624 | -2.15209 | 25577 ft | 384 kts | 198° |
| 2026-05-07 21:44 | 54.26056 | -2.16520 | 26013 ft | 386 kts | 198° |
| 2026-05-07 21:44 | 54.23472 | -2.17840 | 26346 ft | 387 kts | 198° |
| 2026-05-07 21:45 | 54.20887 | -2.19161 | 26591 ft | 389 kts | 198° |
| 2026-05-07 21:45 | 54.18288 | -2.20490 | 26854 ft | 391 kts | 198° |
| 2026-05-07 21:45 | 54.15674 | -2.21820 | 27001 ft | 392 kts | 198° |
| 2026-05-07 21:45 | 54.13115 | -2.23112 | 27026 ft | 376 kts | 198° |
| 2026-05-07 21:46 | 54.10636 | -2.24363 | 27026 ft | 369 kts | 198° |
| 2026-05-07 21:46 | 54.08187 | -2.25602 | 27026 ft | 366 kts | 198° |
| 2026-05-07 21:46 | 54.05745 | -2.26839 | 27027 ft | 366 kts | 198° |
| 2026-05-07 21:46 | 54.03308 | -2.28073 | 27026 ft | 365 kts | 198° |
| 2026-05-07 21:47 | 54.00879 | -2.29329 | 27029 ft | 365 kts | 199° |
| 2026-05-07 21:47 | 53.98481 | -2.30746 | 27029 ft | 365 kts | 201° |
| 2026-05-07 21:47 | 53.96109 | -2.32282 | 27020 ft | 365 kts | 203° |
| 2026-05-07 21:47 | 53.93748 | -2.33866 | 27027 ft | 365 kts | 203° |
| 2026-05-07 21:48 | 53.92185 | -2.34919 | 27027 ft | 365 kts | 203° |
| 2026-05-07 21:48 | 53.89819 | -2.36502 | 27026 ft | 365 kts | 203° |
| 2026-05-07 21:48 | 53.87449 | -2.38064 | 27024 ft | 365 kts | 202° |
| 2026-05-07 21:48 | 53.85077 | -2.39605 | 27022 ft | 365 kts | 202° |
| 2026-05-07 21:49 | 53.82702 | -2.41127 | 27021 ft | 365 kts | 202° |
| 2026-05-07 21:49 | 53.80325 | -2.42641 | 27021 ft | 365 kts | 202° |
| 2026-05-07 21:49 | 53.77942 | -2.44156 | 27018 ft | 365 kts | 202° |
| 2026-05-07 21:49 | 53.75569 | -2.45664 | 27018 ft | 365 kts | 202° |
| 2026-05-07 21:50 | 53.73193 | -2.47177 | 27017 ft | 365 kts | 202° |
| 2026-05-07 21:50 | 53.70814 | -2.48693 | 27010 ft | 365 kts | 202° |
| 2026-05-07 21:50 | 53.68439 | -2.50199 | 27007 ft | 365 kts | 202° |
| 2026-05-07 21:50 | 53.66060 | -2.51702 | 27007 ft | 365 kts | 202° |
| 2026-05-07 21:51 | 53.63680 | -2.53209 | 27008 ft | 365 kts | 202° |
| 2026-05-07 21:51 | 53.61305 | -2.54718 | 27010 ft | 366 kts | 202° |
| 2026-05-07 21:51 | 53.58920 | -2.56233 | 27009 ft | 366 kts | 202° |
| 2026-05-07 21:51 | 53.56541 | -2.57742 | 27009 ft | 365 kts | 202° |
| 2026-05-07 21:52 | 53.54159 | -2.59247 | 27021 ft | 365 kts | 202° |
| 2026-05-07 21:52 | 53.51782 | -2.60746 | 27023 ft | 365 kts | 202° |
| 2026-05-07 21:52 | 53.49405 | -2.62242 | 27025 ft | 365 kts | 202° |
| 2026-05-07 21:52 | 53.47032 | -2.63737 | 27025 ft | 364 kts | 202° |
| 2026-05-07 21:53 | 53.44661 | -2.65231 | 27025 ft | 364 kts | 202° |
| 2026-05-07 21:53 | 53.42289 | -2.66723 | 27037 ft | 364 kts | 202° |
| 2026-05-07 21:53 | 53.39919 | -2.68210 | 27036 ft | 364 kts | 202° |
| 2026-05-07 21:53 | 53.37550 | -2.69691 | 27033 ft | 364 kts | 202° |
| 2026-05-07 21:54 | 53.35179 | -2.71172 | 27031 ft | 364 kts | 202° |
| 2026-05-07 21:54 | 53.32843 | -2.72631 | 27031 ft | 363 kts | 202° |
| 2026-05-07 21:54 | 53.30471 | -2.74110 | 27027 ft | 363 kts | 202° |
| 2026-05-07 21:54 | 53.28104 | -2.75585 | 27023 ft | 363 kts | 202° |
| 2026-05-07 21:55 | 53.25734 | -2.77065 | 27021 ft | 363 kts | 202° |
| 2026-05-07 21:55 | 53.23365 | -2.78536 | 27020 ft | 363 kts | 202° |
| 2026-05-07 21:55 | 53.20995 | -2.80005 | 27010 ft | 363 kts | 202° |
| 2026-05-07 21:55 | 53.18629 | -2.81470 | 27009 ft | 363 kts | 202° |
| 2026-05-07 21:56 | 53.16260 | -2.82938 | 27010 ft | 363 kts | 202° |
| 2026-05-07 21:56 | 53.13891 | -2.84406 | 27011 ft | 363 kts | 202° |
| 2026-05-07 21:56 | 53.11522 | -2.85875 | 27011 ft | 363 kts | 202° |
| 2026-05-07 21:56 | 53.09154 | -2.87325 | 27013 ft | 363 kts | 199° |
| 2026-05-07 21:57 | 53.06686 | -2.88285 | 27014 ft | 365 kts | 189° |
| 2026-05-07 21:57 | 53.04147 | -2.88576 | 27013 ft | 366 kts | 185° |
| 2026-05-07 21:57 | 53.01598 | -2.88779 | 27016 ft | 367 kts | 185° |
| 2026-05-07 21:57 | 52.99048 | -2.88989 | 27016 ft | 367 kts | 185° |
| 2026-05-07 21:58 | 52.96504 | -2.89203 | 27002 ft | 367 kts | 185° |
| 2026-05-07 21:58 | 52.93953 | -2.89420 | 27005 ft | 367 kts | 185° |
| 2026-05-07 21:58 | 52.91403 | -2.89636 | 27007 ft | 367 kts | 185° |
| 2026-05-07 21:58 | 52.88862 | -2.89940 | 27011 ft | 366 kts | 190° |
| 2026-05-07 21:59 | 52.86345 | -2.90547 | 27012 ft | 366 kts | 190° |
| 2026-05-07 21:59 | 52.83826 | -2.91147 | 27014 ft | 366 kts | 190° |
| 2026-05-07 21:59 | 52.81312 | -2.91741 | 27021 ft | 366 kts | 190° |
| 2026-05-07 21:59 | 52.78789 | -2.92332 | 27022 ft | 366 kts | 190° |
| 2026-05-07 22:00 | 52.76300 | -2.92910 | 27023 ft | 366 kts | 190° |
| 2026-05-07 22:00 | 52.73780 | -2.93495 | 27024 ft | 366 kts | 190° |
| 2026-05-07 22:00 | 52.71258 | -2.94062 | 27015 ft | 366 kts | 187° |
| 2026-05-07 22:00 | 52.68675 | -2.94309 | 27040 ft | 380 kts | 185° |
| 2026-05-07 22:01 | 52.65988 | -2.94532 | 27042 ft | 391 kts | 185° |
| 2026-05-07 22:01 | 52.63297 | -2.94753 | 26784 ft | 384 kts | 185° |
| 2026-05-07 22:01 | 52.60646 | -2.94969 | 26268 ft | 379 kts | 185° |
| 2026-05-07 22:01 | 52.58024 | -2.95181 | 25734 ft | 376 kts | 185° |
| 2026-05-07 22:02 | 52.55420 | -2.95391 | 25217 ft | 373 kts | 185° |
| 2026-05-07 22:02 | 52.52839 | -2.95604 | 24716 ft | 370 kts | 185° |
| 2026-05-07 22:02 | 52.50275 | -2.95817 | 24211 ft | 367 kts | 185° |
| 2026-05-07 22:02 | 52.47735 | -2.96025 | 23702 ft | 365 kts | 185° |
| 2026-05-07 22:03 | 52.45209 | -2.96234 | 23152 ft | 362 kts | 185° |
| 2026-05-07 22:03 | 52.42700 | -2.96442 | 22612 ft | 359 kts | 185° |
| 2026-05-07 22:03 | 52.40212 | -2.96649 | 22103 ft | 357 kts | 185° |
| 2026-05-07 22:03 | 52.37744 | -2.96855 | 21607 ft | 354 kts | 185° |
| 2026-05-07 22:04 | 52.35293 | -2.97059 | 21124 ft | 352 kts | 185° |
| 2026-05-07 22:04 | 52.32859 | -2.97261 | 20664 ft | 349 kts | 185° |
| 2026-05-07 22:04 | 52.30442 | -2.97457 | 20193 ft | 347 kts | 184° |
| 2026-05-07 22:04 | 52.28039 | -2.97650 | 19743 ft | 345 kts | 184° |
| 2026-05-07 22:05 | 52.25656 | -2.97842 | 19303 ft | 342 kts | 184° |
| 2026-05-07 22:05 | 52.23284 | -2.98035 | 18862 ft | 340 kts | 184° |
| 2026-05-07 22:05 | 52.20925 | -2.98231 | 18428 ft | 338 kts | 184° |
| 2026-05-07 22:05 | 52.18584 | -2.98425 | 17954 ft | 336 kts | 184° |
| 2026-05-07 22:06 | 52.16251 | -2.98614 | 17484 ft | 334 kts | 184° |
| 2026-05-07 22:06 | 52.13936 | -2.98796 | 17020 ft | 332 kts | 184° |
| 2026-05-07 22:06 | 52.11632 | -2.98976 | 16568 ft | 330 kts | 184° |
| 2026-05-07 22:06 | 52.09346 | -2.99156 | 16140 ft | 328 kts | 184° |
| 2026-05-07 22:07 | 52.07071 | -2.99342 | 15742 ft | 326 kts | 184° |
| 2026-05-07 22:07 | 52.04840 | -2.99522 | 15589 ft | 316 kts | 184° |
| 2026-05-07 22:07 | 52.02679 | -2.99698 | 15481 ft | 307 kts | 184° |
| 2026-05-07 22:07 | 52.00563 | -2.99871 | 15359 ft | 303 kts | 184° |
| 2026-05-07 22:08 | 51.98461 | -3.00042 | 15234 ft | 302 kts | 184° |
| 2026-05-07 22:08 | 51.96361 | -3.00178 | 15132 ft | 302 kts | 180° |
| 2026-05-07 22:08 | 51.94275 | -2.99735 | 14975 ft | 304 kts | 167° |
| 2026-05-07 22:08 | 51.92276 | -2.98623 | 14647 ft | 304 kts | 161° |
| 2026-05-07 22:09 | 51.90302 | -2.97429 | 14351 ft | 302 kts | 161° |
| 2026-05-07 22:09 | 51.88335 | -2.96243 | 14056 ft | 301 kts | 161° |
| 2026-05-07 22:09 | 51.86375 | -2.95066 | 13753 ft | 300 kts | 161° |
| 2026-05-07 22:09 | 51.84426 | -2.93901 | 13418 ft | 297 kts | 161° |
| 2026-05-07 22:10 | 51.82516 | -2.92760 | 13081 ft | 296 kts | 161° |
| 2026-05-07 22:10 | 51.80568 | -2.91598 | 12720 ft | 294 kts | 161° |
| 2026-05-07 22:10 | 51.78681 | -2.90471 | 12365 ft | 292 kts | 161° |
| 2026-05-07 22:10 | 51.76778 | -2.89337 | 12009 ft | 291 kts | 161° |
| 2026-05-07 22:11 | 51.74886 | -2.88210 | 11662 ft | 289 kts | 161° |
| 2026-05-07 22:11 | 51.73007 | -2.87091 | 11325 ft | 287 kts | 161° |
| 2026-05-07 22:11 | 51.71135 | -2.85994 | 10965 ft | 285 kts | 164° |
| 2026-05-07 22:11 | 51.69234 | -2.85160 | 10614 ft | 283 kts | 167° |
| 2026-05-07 22:12 | 51.67336 | -2.84338 | 10280 ft | 282 kts | 166° |
| 2026-05-07 22:12 | 51.65447 | -2.83514 | 9922 ft | 280 kts | 166° |
| 2026-05-07 22:12 | 51.63572 | -2.82694 | 9532 ft | 278 kts | 166° |
| 2026-05-07 22:12 | 51.61711 | -2.81886 | 9150 ft | 277 kts | 166° |
| 2026-05-07 22:13 | 51.59857 | -2.81083 | 8749 ft | 275 kts | 166° |
| 2026-05-07 22:13 | 51.58021 | -2.80286 | 8372 ft | 273 kts | 166° |
| 2026-05-07 22:13 | 51.56195 | -2.79497 | 7981 ft | 271 kts | 166° |
| 2026-05-07 22:13 | 51.54382 | -2.78716 | 7604 ft | 269 kts | 166° |
| 2026-05-07 22:14 | 51.52586 | -2.77921 | 7212 ft | 267 kts | 161° |
| 2026-05-07 22:14 | 51.51028 | -2.76357 | 6839 ft | 266 kts | 136° |
| 2026-05-07 22:14 | 51.49802 | -2.74129 | 6425 ft | 266 kts | 131° |
| 2026-05-07 22:14 | 51.48631 | -2.71841 | 6006 ft | 265 kts | 130° |
| 2026-05-07 22:15 | 51.47473 | -2.69566 | 5592 ft | 263 kts | 130° |
| 2026-05-07 22:15 | 51.46318 | -2.67301 | 5164 ft | 261 kts | 130° |
| 2026-05-07 22:15 | 51.45377 | -2.64837 | 4753 ft | 261 kts | 109° |
| 2026-05-07 22:15 | 51.45155 | -2.61960 | 4341 ft | 261 kts | 92° |
| 2026-05-07 22:16 | 51.45168 | -2.59050 | 3920 ft | 261 kts | 90° |
| 2026-05-07 22:16 | 51.45204 | -2.56155 | 3506 ft | 259 kts | 90° |
| 2026-05-07 22:16 | 51.45242 | -2.53314 | 3085 ft | 257 kts | 90° |
| 2026-05-07 22:16 | 51.45084 | -2.50455 | 2671 ft | 252 kts | 110° |
| 2026-05-07 22:17 | 51.44161 | -2.48235 | 2498 ft | 237 kts | 142° |
| 2026-05-07 22:17 | 51.42738 | -2.47227 | 2505 ft | 218 kts | 172° |
| 2026-05-07 22:17 | 51.41273 | -2.47118 | 2505 ft | 204 kts | 179° |
| 2026-05-07 22:17 | 51.39904 | -2.47397 | 2493 ft | 192 kts | 204° |
| 2026-05-07 22:18 | 51.38926 | -2.48791 | 2502 ft | 191 kts | 239° |
| 2026-05-07 22:18 | 51.39019 | -2.52928 | 2527 ft | 180 kts | 266° |
| 2026-05-07 22:18 | 51.38930 | -2.54836 | 2490 ft | 166 kts | 263° |
| 2026-05-07 22:19 | 51.38855 | -2.56617 | 2350 ft | 160 kts | 263° |
| 2026-05-07 22:19 | 51.38785 | -2.58385 | 2162 ft | 159 kts | 264° |
| 2026-05-07 22:19 | 51.38718 | -2.60124 | 1962 ft | 154 kts | 263° |
| 2026-05-07 22:19 | 51.38654 | -2.61810 | 1772 ft | 150 kts | 263° |
| 2026-05-07 22:20 | 51.38591 | -2.63470 | 1557 ft | 148 kts | 264° |
| 2026-05-07 22:20 | 51.38528 | -2.65118 | 1348 ft | 148 kts | 264° |
| 2026-05-07 22:20 | 51.38465 | -2.66757 | 1141 ft | 147 kts | 265° |
| 2026-05-07 22:20 | 51.38402 | -2.68384 | 922 ft | 147 kts | 266° |
| 2026-05-07 22:21 | 51.38342 | -2.70021 | 729 ft | 148 kts | 265° |
| 2026-05-07 22:21 | 51.38278 | -2.71637 | 615 ft | 136 kts | 266° |
| 2026-05-07 22:21 | 51.38238 | -2.72685 | 632 ft | 51 kts | 266° |
| 2026-05-07 22:21 | 51.38218 | -2.73155 | 629 ft | 25 kts | 265° |
| 2026-05-07 22:22 | 51.38244 | -2.73321 | 631 ft | 14 kts | 323° |
| 2026-05-07 22:22 | 51.38349 | -2.73320 | 620 ft | 16 kts | 32° |
| 2026-05-07 22:22 | 51.38386 | -2.73158 | 615 ft | 17 kts | 86° |
| 2026-05-07 22:22 | 51.38393 | -2.72959 | 615 ft | 19 kts | 87° |
| 2026-05-07 22:23 | 51.38402 | -2.72737 | 615 ft | 21 kts | 86° |
| 2026-05-07 22:23 | 51.38411 | -2.72489 | 625 ft | 23 kts | 86° |
| 2026-05-07 22:23 | 51.38422 | -2.72231 | 611 ft | 19 kts | 87° |
| 2026-05-07 22:23 | 51.38428 | -2.72070 | 618 ft | 10 kts | 86° |
| 2026-05-07 22:24 | 51.38470 | -2.72018 | 614 ft | 8 kts | 355° |
| 2026-05-07 22:24 | 51.38514 | -2.72026 | 616 ft | 4 kts | 346° |
| 2026-05-07 22:24 | 51.38522 | -2.72059 | 616 ft | 3 kts | 273° |
| 2026-05-07 22:24 | 51.38521 | -2.72086 | 612 ft | 2 kts | 266° |
| 2026-05-07 22:25 | 51.38520 | -2.72104 | 614 ft | 1 kts | 266° |
| 2026-05-07 22:25 | 51.38520 | -2.72108 | 613 ft | 0 kts | 266° |